PWSweather.com
Personal Weather Stations
Station Observations
01979
Ravne Pri CerknemSI 5282

Ravne Pri CerknemSI 5282

Lat: 46.1213916, Lon: 13.952774299999987

Elevation: 2244.094488

Station Type: Techo Line WS2307

Latest ConditionsUpdated 6:50:24 PM GMT+01:01 Saturday, May 26, 2018
Currently Today's Max Today's Min Today's Average
Temperature 71.1°F21.7°C 73.9°F23.3°C 57.4°F14.1°C 65.1°F18.4°C
Dew Point 59.1°F15.1°C 61.4°F16.3°C 54.5°F12.5°C 57.3°F14.1°C
Winds Calm Calm 6.2 mph S10.0 kmh S - 2.0 mph 3.2 kmh
Wind Gusts -- 9.6 mph15.4 kmh - -
Humidity 66% 92% 60% 77%
Pressure 30.23 in1023.7 mb 30.28 in1025.4 mb 30.23 in1023.7 mb -
Hour Temp Dew Point Humidity Winds Wind Gusts Pressure Precip Precip Rate Daily Precip Total
06:50 PM 71.1°F21.7°C 59.1°F15.1°C 66% Calm Calm -- 30.23 in1023.7 mb 0.00 in0.0 mm 0.00 in0.0 mm 0.00 in0.0 mm
06:40 PM 71.8°F22.1°C 59.4°F15.2°C 65% Calm Calm -- 30.23 in1023.7 mb 0.00 in0.0 mm 0.00 in0.0 mm 0.00 in0.0 mm
06:30 PM 72.3°F22.4°C 59.9°F15.5°C 65% Calm Calm -- 30.23 in1023.7 mb 0.00 in0.0 mm 0.00 in0.0 mm 0.00 in0.0 mm
06:20 PM 71.2°F21.8°C 58.9°F14.9°C 65% Calm Calm -- 30.23 in1023.7 mb 0.00 in0.0 mm 0.00 in0.0 mm 0.00 in0.0 mm
06:10 PM 71.2°F21.8°C 58.9°F14.9°C 65% Calm Calm -- 30.23 in1023.7 mb 0.00 in0.0 mm 0.00 in0.0 mm 0.00 in0.0 mm
06:00 PM 71.8°F22.1°C 58.9°F14.9°C 64% Calm Calm -- 30.23 in1023.7 mb 0.00 in0.0 mm 0.00 in0.0 mm 0.00 in0.0 mm
05:50 PM 73.2°F22.9°C 59.4°F15.2°C 62% Calm Calm -- 30.23 in1023.7 mb 0.00 in0.0 mm 0.00 in0.0 mm 0.00 in0.0 mm
05:40 PM 73.2°F22.9°C 59.0°F15.0°C 61% Calm Calm -- 30.23 in1023.7 mb 0.00 in0.0 mm 0.00 in0.0 mm 0.00 in0.0 mm
05:30 PM 73.0°F22.8°C 59.2°F15.1°C 62% Calm Calm -- 30.23 in1023.7 mb 0.00 in0.0 mm 0.00 in0.0 mm 0.00 in0.0 mm
05:20 PM 72.5°F22.5°C 58.7°F14.8°C 62% 0.7 mph S1.1 kmh S 2.0 mph3.2 kmh 30.23 in1023.7 mb 0.00 in0.0 mm 0.00 in0.0 mm 0.00 in0.0 mm
05:10 PM 71.8°F22.1°C 58.5°F14.7°C 63% 0.9 mph SSE1.4 kmh SSE 2.0 mph3.2 kmh 30.23 in1023.7 mb 0.00 in0.0 mm 0.00 in0.0 mm 0.00 in0.0 mm
05:00 PM 72.1°F22.3°C 58.8°F14.9°C 63% Calm Calm -- 30.23 in1023.7 mb 0.00 in0.0 mm 0.00 in0.0 mm 0.00 in0.0 mm
04:50 PM 72.3°F22.4°C 59.0°F15.0°C 63% 4.0 mph S6.4 kmh S 6.0 mph9.7 kmh 30.23 in1023.7 mb 0.00 in0.0 mm 0.00 in0.0 mm 0.00 in0.0 mm
04:40 PM 72.7°F22.6°C 58.9°F14.9°C 62% 2.2 mph SE3.5 kmh SE 5.1 mph8.2 kmh 30.24 in1024.0 mb 0.00 in0.0 mm 0.00 in0.0 mm 0.00 in0.0 mm
04:30 PM 73.0°F22.8°C 58.8°F14.9°C 61% 3.9 mph SSE6.3 kmh SSE 8.1 mph13.0 kmh 30.24 in1024.0 mb 0.00 in0.0 mm 0.00 in0.0 mm 0.00 in0.0 mm
04:20 PM 73.2°F22.9°C 59.0°F15.0°C 61% 5.2 mph S8.4 kmh S 6.5 mph10.5 kmh 30.25 in1024.4 mb 0.00 in0.0 mm 0.00 in0.0 mm 0.00 in0.0 mm
04:11 PM 73.2°F22.9°C 58.5°F14.7°C 60% 4.0 mph SSW6.4 kmh SSW 5.8 mph9.3 kmh 30.25 in1024.4 mb 0.00 in0.0 mm 0.00 in0.0 mm 0.00 in0.0 mm
04:00 PM 73.4°F23.0°C 59.6°F15.3°C 62% 3.9 mph S6.3 kmh S 5.8 mph9.3 kmh 30.24 in1024.0 mb 0.00 in0.0 mm 0.00 in0.0 mm 0.00 in0.0 mm
03:51 PM 73.2°F22.9°C 58.5°F14.7°C 60% 2.2 mph SSE3.5 kmh SSE 7.2 mph11.6 kmh 30.24 in1024.0 mb 0.00 in0.0 mm 0.00 in0.0 mm 0.00 in0.0 mm
03:40 PM 73.4°F23.0°C 59.6°F15.3°C 62% 1.9 mph SE3.1 kmh SE 3.8 mph6.1 kmh 30.25 in1024.4 mb 0.00 in0.0 mm 0.00 in0.0 mm 0.00 in0.0 mm
03:30 PM 73.2°F22.9°C 59.0°F15.0°C 61% 1.2 mph SSE1.9 kmh SSE 5.8 mph9.3 kmh 30.25 in1024.4 mb 0.00 in0.0 mm 0.00 in0.0 mm 0.00 in0.0 mm
03:20 PM 73.8°F23.2°C 59.0°F15.0°C 60% 0.5 mph SE0.8 kmh SE 2.2 mph3.5 kmh 30.25 in1024.4 mb 0.00 in0.0 mm 0.00 in0.0 mm 0.00 in0.0 mm
03:10 PM 73.9°F23.3°C 60.1°F15.6°C 62% Calm Calm -- 30.25 in1024.4 mb 0.00 in0.0 mm 0.00 in0.0 mm 0.00 in0.0 mm
03:00 PM 72.9°F22.7°C 59.5°F15.3°C 63% 4.3 mph S6.9 kmh S 6.9 mph11.1 kmh 30.25 in1024.4 mb 0.00 in0.0 mm 0.00 in0.0 mm 0.00 in0.0 mm
02:50 PM 73.8°F23.2°C 59.9°F15.5°C 62% Calm Calm -- 30.25 in1024.4 mb 0.00 in0.0 mm 0.00 in0.0 mm 0.00 in0.0 mm
02:40 PM 73.0°F22.8°C 59.2°F15.1°C 62% 2.5 mph E4.0 kmh E 6.0 mph9.7 kmh 30.25 in1024.4 mb 0.00 in0.0 mm 0.00 in0.0 mm 0.00 in0.0 mm
02:31 PM 73.2°F22.9°C 59.9°F15.5°C 63% 0.8 mph SSE1.3 kmh SSE 4.0 mph6.4 kmh 30.25 in1024.4 mb 0.00 in0.0 mm 0.00 in0.0 mm 0.00 in0.0 mm
02:20 PM 73.9°F23.3°C 61.4°F16.3°C 65% 1.6 mph SSE2.6 kmh SSE 5.1 mph8.2 kmh 30.26 in1024.7 mb 0.00 in0.0 mm 0.00 in0.0 mm 0.00 in0.0 mm
02:10 PM 72.0°F22.2°C 58.7°F14.8°C 63% 3.2 mph S5.1 kmh S 6.9 mph11.1 kmh 30.26 in1024.7 mb 0.00 in0.0 mm 0.00 in0.0 mm 0.00 in0.0 mm
02:00 PM 72.3°F22.4°C 59.0°F15.0°C 63% 2.2 mph SSW3.5 kmh SSW 6.9 mph11.1 kmh 30.27 in1025.1 mb 0.00 in0.0 mm 0.00 in0.0 mm 0.00 in0.0 mm
01:50 PM 72.0°F22.2°C 59.1°F15.1°C 64% 3.8 mph SSE6.1 kmh SSE 6.5 mph10.5 kmh 30.27 in1025.1 mb 0.00 in0.0 mm 0.00 in0.0 mm 0.00 in0.0 mm
01:40 PM 71.8°F22.1°C 58.9°F14.9°C 64% 5.2 mph E8.4 kmh E 8.9 mph14.3 kmh 30.27 in1025.1 mb 0.00 in0.0 mm 0.00 in0.0 mm 0.00 in0.0 mm
01:30 PM 71.6°F22.0°C 60.1°F15.6°C 67% 2.2 mph E3.5 kmh E 8.9 mph14.3 kmh 30.27 in1025.1 mb 0.00 in0.0 mm 0.00 in0.0 mm 0.00 in0.0 mm
01:20 PM 71.8°F22.1°C 58.9°F14.9°C 64% 1.9 mph ESE3.1 kmh ESE 6.0 mph9.7 kmh 30.27 in1025.1 mb 0.00 in0.0 mm 0.00 in0.0 mm 0.00 in0.0 mm
01:10 PM 70.5°F21.4°C 58.6°F14.8°C 66% 2.9 mph S4.7 kmh S 6.0 mph9.7 kmh 30.27 in1025.1 mb 0.00 in0.0 mm 0.00 in0.0 mm 0.00 in0.0 mm
01:00 PM 70.0°F21.1°C 58.1°F14.5°C 66% 0.4 mph ESE0.6 kmh ESE 2.2 mph3.5 kmh 30.27 in1025.1 mb 0.00 in0.0 mm 0.00 in0.0 mm 0.00 in0.0 mm
12:50 PM 70.5°F21.4°C 58.6°F14.8°C 66% 4.1 mph E6.6 kmh E 7.4 mph11.9 kmh 30.27 in1025.1 mb 0.00 in0.0 mm 0.00 in0.0 mm 0.00 in0.0 mm
12:40 PM 70.2°F21.2°C 59.1°F15.1°C 68% 0.2 mph ESE0.3 kmh ESE 5.4 mph8.7 kmh 30.27 in1025.1 mb 0.00 in0.0 mm 0.00 in0.0 mm 0.00 in0.0 mm
12:30 PM 70.5°F21.4°C 59.4°F15.2°C 68% 1.2 mph E1.9 kmh E 4.5 mph7.2 kmh 30.27 in1025.1 mb 0.00 in0.0 mm 0.00 in0.0 mm 0.00 in0.0 mm
12:20 PM 69.4°F20.8°C 58.8°F14.9°C 69% 3.0 mph SE4.8 kmh SE 4.7 mph7.6 kmh 30.28 in1025.4 mb 0.00 in0.0 mm 0.00 in0.0 mm 0.00 in0.0 mm
12:10 PM 70.5°F21.4°C 59.4°F15.2°C 68% 0.5 mph E0.8 kmh E 4.7 mph7.6 kmh 30.27 in1025.1 mb 0.00 in0.0 mm 0.00 in0.0 mm 0.00 in0.0 mm
12:00 PM 68.4°F20.2°C 57.4°F14.1°C 68% 0.5 mph SE0.8 kmh SE 1.6 mph2.6 kmh 30.28 in1025.4 mb 0.00 in0.0 mm 0.00 in0.0 mm 0.00 in0.0 mm
11:50 AM 69.1°F20.6°C 58.1°F14.5°C 68% 1.6 mph SE2.6 kmh SE 6.3 mph10.1 kmh 30.27 in1025.1 mb 0.00 in0.0 mm 0.00 in0.0 mm 0.00 in0.0 mm
11:40 AM 69.6°F20.9°C 59.8°F15.4°C 71% 0.6 mph SW1.0 kmh SW 3.1 mph5.0 kmh 30.28 in1025.4 mb 0.00 in0.0 mm 0.00 in0.0 mm 0.00 in0.0 mm
11:30 AM 68.9°F20.5°C 58.3°F14.6°C 69% 0.2 mph E0.3 kmh E 6.7 mph10.8 kmh 30.28 in1025.4 mb 0.00 in0.0 mm 0.00 in0.0 mm 0.00 in0.0 mm
11:20 AM 68.9°F20.5°C 58.3°F14.6°C 69% 2.2 mph E3.5 kmh E 6.7 mph10.8 kmh 30.27 in1025.1 mb 0.00 in0.0 mm 0.00 in0.0 mm 0.00 in0.0 mm
11:10 AM 68.0°F20.0°C 57.8°F14.3°C 70% 2.6 mph S4.2 kmh S 6.3 mph10.1 kmh 30.28 in1025.4 mb 0.00 in0.0 mm 0.00 in0.0 mm 0.00 in0.0 mm
11:00 AM 68.5°F20.3°C 58.4°F14.7°C 70% 2.3 mph S3.7 kmh S 6.9 mph11.1 kmh 30.27 in1025.1 mb 0.00 in0.0 mm 0.00 in0.0 mm 0.00 in0.0 mm
10:50 AM 69.4°F20.8°C 58.8°F14.9°C 69% 3.9 mph E6.3 kmh E 6.9 mph11.1 kmh 30.28 in1025.4 mb 0.00 in0.0 mm 0.00 in0.0 mm 0.00 in0.0 mm
10:40 AM 68.9°F20.5°C 58.7°F14.8°C 70% 2.8 mph S4.5 kmh S 7.2 mph11.6 kmh 30.28 in1025.4 mb 0.00 in0.0 mm 0.00 in0.0 mm 0.00 in0.0 mm
10:30 AM 68.5°F20.3°C 59.2°F15.1°C 72% 5.2 mph SSE8.4 kmh SSE 9.4 mph15.1 kmh 30.28 in1025.4 mb 0.00 in0.0 mm 0.00 in0.0 mm 0.00 in0.0 mm
10:21 AM 68.4°F20.2°C 58.6°F14.8°C 71% 5.4 mph SSW8.7 kmh SSW 7.8 mph12.6 kmh 30.28 in1025.4 mb 0.00 in0.0 mm 0.00 in0.0 mm 0.00 in0.0 mm
10:10 AM 67.5°F19.7°C 58.1°F14.5°C 72% 6.2 mph S10.0 kmh S 9.6 mph15.4 kmh 30.28 in1025.4 mb 0.00 in0.0 mm 0.00 in0.0 mm 0.00 in0.0 mm
10:00 AM 67.8°F19.9°C 59.2°F15.1°C 74% 3.9 mph SE6.3 kmh SE 6.0 mph9.7 kmh 30.28 in1025.4 mb 0.00 in0.0 mm 0.00 in0.0 mm 0.00 in0.0 mm
09:50 AM 66.9°F19.4°C 57.6°F14.2°C 72% 4.5 mph S7.2 kmh S 6.0 mph9.7 kmh 30.28 in1025.4 mb 0.00 in0.0 mm 0.00 in0.0 mm 0.00 in0.0 mm
09:40 AM 67.1°F19.5°C 58.2°F14.6°C 73% 3.6 mph S5.8 kmh S 4.7 mph7.6 kmh 30.27 in1025.1 mb 0.00 in0.0 mm 0.00 in0.0 mm 0.00 in0.0 mm
09:30 AM 66.7°F19.3°C 58.2°F14.6°C 74% 4.2 mph SSW6.8 kmh SSW 8.5 mph13.7 kmh 30.28 in1025.4 mb 0.00 in0.0 mm 0.00 in0.0 mm 0.00 in0.0 mm
09:20 AM 66.9°F19.4°C 59.1°F15.1°C 76% 0.5 mph NW0.8 kmh NW 1.3 mph2.1 kmh 30.27 in1025.1 mb 0.00 in0.0 mm 0.00 in0.0 mm 0.00 in0.0 mm
09:10 AM 65.8°F18.8°C 56.6°F13.7°C 72% 3.3 mph S5.3 kmh S 6.9 mph11.1 kmh 30.27 in1025.1 mb 0.00 in0.0 mm 0.00 in0.0 mm 0.00 in0.0 mm
09:00 AM 66.2°F19.0°C 57.3°F14.1°C 73% 0.3 mph WNW0.5 kmh WNW 1.3 mph2.1 kmh 30.27 in1025.1 mb 0.00 in0.0 mm 0.00 in0.0 mm 0.00 in0.0 mm
08:50 AM 66.2°F19.0°C 57.3°F14.1°C 73% 1.8 mph NE2.9 kmh NE 4.9 mph7.9 kmh 30.26 in1024.7 mb 0.00 in0.0 mm 0.00 in0.0 mm 0.00 in0.0 mm
08:40 AM 65.1°F18.4°C 57.4°F14.1°C 76% 2.6 mph E4.2 kmh E 6.9 mph11.1 kmh 30.27 in1025.1 mb 0.00 in0.0 mm 0.00 in0.0 mm 0.00 in0.0 mm
08:30 AM 63.1°F17.3°C 56.2°F13.4°C 78% 1.7 mph NNW2.7 kmh NNW 3.4 mph5.5 kmh 30.27 in1025.1 mb 0.00 in0.0 mm 0.00 in0.0 mm 0.00 in0.0 mm
08:20 AM 62.4°F16.9°C 55.8°F13.2°C 79% 4.7 mph NW7.6 kmh NW 8.3 mph13.4 kmh 30.27 in1025.1 mb 0.00 in0.0 mm 0.00 in0.0 mm 0.00 in0.0 mm
08:10 AM 62.4°F16.9°C 56.5°F13.6°C 81% 3.0 mph WNW4.8 kmh WNW 7.4 mph11.9 kmh 30.27 in1025.1 mb 0.00 in0.0 mm 0.00 in0.0 mm 0.00 in0.0 mm
08:00 AM 62.1°F16.7°C 56.2°F13.4°C 81% 2.1 mph NNW3.4 kmh NNW 4.0 mph6.4 kmh 30.27 in1025.1 mb 0.00 in0.0 mm 0.00 in0.0 mm 0.00 in0.0 mm
07:50 AM 61.7°F16.5°C 56.8°F13.8°C 84% Calm Calm -- 30.27 in1025.1 mb 0.00 in0.0 mm 0.00 in0.0 mm 0.00 in0.0 mm
07:40 AM 61.7°F16.5°C 57.1°F13.9°C 85% 2.2 mph SSW3.5 kmh SSW 5.1 mph8.2 kmh 30.27 in1025.1 mb 0.00 in0.0 mm 0.00 in0.0 mm 0.00 in0.0 mm
07:30 AM 60.8°F16.0°C 56.3°F13.5°C 85% 0.2 mph NNW0.3 kmh NNW 1.6 mph2.6 kmh 30.27 in1025.1 mb 0.00 in0.0 mm 0.00 in0.0 mm 0.00 in0.0 mm
07:20 AM 60.4°F15.8°C 56.2°F13.4°C 86% 2.2 mph NNE3.5 kmh NNE 4.0 mph6.4 kmh 30.27 in1025.1 mb 0.00 in0.0 mm 0.00 in0.0 mm 0.00 in0.0 mm
07:10 AM 60.1°F15.6°C 56.2°F13.4°C 87% 1.3 mph E2.1 kmh E 3.8 mph6.1 kmh 30.27 in1025.1 mb 0.00 in0.0 mm 0.00 in0.0 mm 0.00 in0.0 mm
07:00 AM 59.7°F15.4°C 56.2°F13.4°C 88% 1.9 mph NE3.1 kmh NE 5.8 mph9.3 kmh 30.27 in1025.1 mb 0.00 in0.0 mm 0.00 in0.0 mm 0.00 in0.0 mm
06:50 AM 59.7°F15.4°C 56.2°F13.4°C 88% 1.5 mph ESE2.4 kmh ESE 4.7 mph7.6 kmh 30.26 in1024.7 mb 0.00 in0.0 mm 0.00 in0.0 mm 0.00 in0.0 mm
06:40 AM 59.4°F15.2°C 56.4°F13.6°C 90% 0.3 mph E0.5 kmh E 2.9 mph4.7 kmh 30.27 in1025.1 mb 0.00 in0.0 mm 0.00 in0.0 mm 0.00 in0.0 mm
06:30 AM 58.8°F14.9°C 56.2°F13.4°C 91% 0.5 mph E0.8 kmh E 2.5 mph4.0 kmh 30.26 in1024.7 mb 0.00 in0.0 mm 0.00 in0.0 mm 0.00 in0.0 mm
06:20 AM 58.8°F14.9°C 56.2°F13.4°C 91% 0.3 mph NNW0.5 kmh NNW 1.6 mph2.6 kmh 30.26 in1024.7 mb 0.00 in0.0 mm 0.00 in0.0 mm 0.00 in0.0 mm
06:10 AM 58.8°F14.9°C 56.2°F13.4°C 91% Calm Calm -- 30.26 in1024.7 mb 0.00 in0.0 mm 0.00 in0.0 mm 0.00 in0.0 mm
06:00 AM 58.6°F14.8°C 56.0°F13.3°C 91% 1.3 mph ESE2.1 kmh ESE 4.5 mph7.2 kmh 30.26 in1024.7 mb 0.00 in0.0 mm 0.00 in0.0 mm 0.00 in0.0 mm
05:50 AM 58.1°F14.5°C 55.5°F13.1°C 91% 4.1 mph E6.6 kmh E 6.0 mph9.7 kmh 30.26 in1024.7 mb 0.00 in0.0 mm 0.00 in0.0 mm 0.00 in0.0 mm
05:40 AM 57.9°F14.4°C 55.6°F13.1°C 92% 0.8 mph NE1.3 kmh NE 2.2 mph3.5 kmh 30.25 in1024.4 mb 0.00 in0.0 mm 0.00 in0.0 mm 0.00 in0.0 mm
05:30 AM 57.9°F14.4°C 55.6°F13.1°C 92% 1.3 mph ENE2.1 kmh ENE 3.4 mph5.5 kmh 30.25 in1024.4 mb 0.00 in0.0 mm 0.00 in0.0 mm 0.00 in0.0 mm
05:20 AM 57.7°F14.3°C 55.4°F13.0°C 92% 0.7 mph ENE1.1 kmh ENE 1.8 mph2.9 kmh 30.25 in1024.4 mb 0.00 in0.0 mm 0.00 in0.0 mm 0.00 in0.0 mm
05:10 AM 57.7°F14.3°C 55.1°F12.8°C 91% Calm Calm -- 30.25 in1024.4 mb 0.00 in0.0 mm 0.00 in0.0 mm 0.00 in0.0 mm
05:00 AM 57.7°F14.3°C 55.1°F12.8°C 91% 0.4 mph E0.6 kmh E 2.2 mph3.5 kmh 30.25 in1024.4 mb 0.00 in0.0 mm 0.00 in0.0 mm 0.00 in0.0 mm
04:50 AM 57.7°F14.3°C 55.1°F12.8°C 91% 1.7 mph E2.7 kmh E 4.5 mph7.2 kmh 30.24 in1024.0 mb 0.00 in0.0 mm 0.00 in0.0 mm 0.00 in0.0 mm
04:40 AM 57.7°F14.3°C 55.1°F12.8°C 91% 0.1 mph ENE0.2 kmh ENE 2.0 mph3.2 kmh 30.24 in1024.0 mb 0.00 in0.0 mm 0.00 in0.0 mm 0.00 in0.0 mm
04:30 AM 57.7°F14.3°C 55.1°F12.8°C 91% 4.4 mph E7.1 kmh E 6.9 mph11.1 kmh 30.24 in1024.0 mb 0.00 in0.0 mm 0.00 in0.0 mm 0.00 in0.0 mm
04:20 AM 57.6°F14.2°C 55.0°F12.8°C 91% 1.0 mph SE1.6 kmh SE 6.3 mph10.1 kmh 30.24 in1024.0 mb 0.00 in0.0 mm 0.00 in0.0 mm 0.00 in0.0 mm
04:10 AM 57.4°F14.1°C 54.8°F12.7°C 91% Calm Calm -- 30.24 in1024.0 mb 0.00 in0.0 mm 0.00 in0.0 mm 0.00 in0.0 mm
04:00 AM 57.6°F14.2°C 55.0°F12.8°C 91% 1.5 mph E2.4 kmh E 4.3 mph6.9 kmh 30.24 in1024.0 mb 0.00 in0.0 mm 0.00 in0.0 mm 0.00 in0.0 mm
03:50 AM 57.6°F14.2°C 54.6°F12.6°C 90% 1.9 mph E3.1 kmh E 5.1 mph8.2 kmh 30.24 in1024.0 mb 0.00 in0.0 mm 0.00 in0.0 mm 0.00 in0.0 mm
03:40 AM 57.7°F14.3°C 54.8°F12.7°C 90% 3.3 mph SE5.3 kmh SE 6.3 mph10.1 kmh 30.24 in1024.0 mb 0.00 in0.0 mm 0.00 in0.0 mm 0.00 in0.0 mm
03:30 AM 57.7°F14.3°C 54.8°F12.7°C 90% 1.9 mph ESE3.1 kmh ESE 6.3 mph10.1 kmh 30.24 in1024.0 mb 0.00 in0.0 mm 0.00 in0.0 mm 0.00 in0.0 mm
03:20 AM 57.7°F14.3°C 54.8°F12.7°C 90% 2.5 mph ESE4.0 kmh ESE 4.9 mph7.9 kmh 30.24 in1024.0 mb 0.00 in0.0 mm 0.00 in0.0 mm 0.00 in0.0 mm
03:10 AM 57.9°F14.4°C 55.0°F12.8°C 90% 1.6 mph E2.6 kmh E 4.9 mph7.9 kmh 30.24 in1024.0 mb 0.00 in0.0 mm 0.00 in0.0 mm 0.00 in0.0 mm
03:03 AM 57.7°F14.3°C 54.8°F12.7°C 90% 4.7 mph E7.6 kmh E 3.6 mph5.8 kmh 30.23 in1023.7 mb 0.00 in0.0 mm 0.00 in0.0 mm 0.00 in0.0 mm
03:00 AM 57.9°F14.4°C 55.0°F12.8°C 90% 5.2 mph E8.4 kmh E 7.6 mph12.2 kmh 30.24 in1024.0 mb 0.00 in0.0 mm 0.00 in0.0 mm 0.00 in0.0 mm
02:50 AM 57.9°F14.4°C 55.0°F12.8°C 90% 6.0 mph E9.7 kmh E 7.6 mph12.2 kmh 30.24 in1024.0 mb 0.00 in0.0 mm 0.00 in0.0 mm 0.00 in0.0 mm
02:40 AM 57.7°F14.3°C 54.8°F12.7°C 90% 3.7 mph E6.0 kmh E 4.9 mph7.9 kmh 30.23 in1023.7 mb 0.00 in0.0 mm 0.00 in0.0 mm 0.00 in0.0 mm
02:30 AM 57.6°F14.2°C 54.6°F12.6°C 90% 1.0 mph E1.6 kmh E 4.5 mph7.2 kmh 30.24 in1024.0 mb 0.00 in0.0 mm 0.00 in0.0 mm 0.00 in0.0 mm
02:20 AM 57.7°F14.3°C 54.8°F12.7°C 90% 5.7 mph E9.2 kmh E 7.8 mph12.6 kmh 30.23 in1023.7 mb 0.00 in0.0 mm 0.00 in0.0 mm 0.00 in0.0 mm
02:10 AM 57.6°F14.2°C 54.6°F12.6°C 90% 6.1 mph ESE9.8 kmh ESE 6.9 mph11.1 kmh 30.23 in1023.7 mb 0.00 in0.0 mm 0.00 in0.0 mm 0.00 in0.0 mm
02:03 AM 58.3°F14.6°C 54.7°F12.6°C 88% 1.9 mph E3.1 kmh E 6.0 mph9.7 kmh 30.23 in1023.7 mb 0.00 in0.0 mm 0.00 in0.0 mm 0.00 in0.0 mm
02:00 AM 57.7°F14.3°C 54.5°F12.5°C 89% 1.9 mph E3.1 kmh E 6.0 mph9.7 kmh 30.23 in1023.7 mb 0.00 in0.0 mm 0.00 in0.0 mm 0.00 in0.0 mm
01:50 AM 57.9°F14.4°C 54.7°F12.6°C 89% 2.7 mph ESE4.3 kmh ESE 4.9 mph7.9 kmh 30.23 in1023.7 mb 0.00 in0.0 mm 0.00 in0.0 mm 0.00 in0.0 mm
01:40 AM 58.3°F14.6°C 54.7°F12.6°C 88% 1.7 mph SE2.7 kmh SE 3.8 mph6.1 kmh 30.23 in1023.7 mb 0.00 in0.0 mm 0.00 in0.0 mm 0.00 in0.0 mm
01:30 AM 58.6°F14.8°C 55.1°F12.8°C 88% 2.9 mph ESE4.7 kmh ESE 4.5 mph7.2 kmh 30.23 in1023.7 mb 0.00 in0.0 mm 0.00 in0.0 mm 0.00 in0.0 mm
01:20 AM 58.6°F14.8°C 54.8°F12.7°C 87% 1.2 mph SE1.9 kmh SE 2.9 mph4.7 kmh 30.24 in1024.0 mb 0.00 in0.0 mm 0.00 in0.0 mm 0.00 in0.0 mm
01:10 AM 58.8°F14.9°C 55.3°F12.9°C 88% 1.2 mph SE1.9 kmh SE 4.0 mph6.4 kmh 30.24 in1024.0 mb 0.00 in0.0 mm 0.00 in0.0 mm 0.00 in0.0 mm
01:00 AM 58.8°F14.9°C 55.3°F12.9°C 88% Calm Calm -- 30.24 in1024.0 mb 0.00 in0.0 mm 0.00 in0.0 mm 0.00 in0.0 mm
12:50 AM 58.8°F14.9°C 55.6°F13.1°C 89% Calm Calm -- 30.24 in1024.0 mb 0.00 in0.0 mm 0.00 in0.0 mm 0.00 in0.0 mm
12:40 AM 58.6°F14.8°C 55.4°F13.0°C 89% Calm Calm -- 30.24 in1024.0 mb 0.00 in0.0 mm 0.00 in0.0 mm 0.00 in0.0 mm
12:30 AM 58.8°F14.9°C 55.6°F13.1°C 89% Calm Calm -- 30.23 in1023.7 mb 0.00 in0.0 mm 0.00 in0.0 mm 0.00 in0.0 mm
12:20 AM 58.8°F14.9°C 55.9°F13.3°C 90% Calm Calm -- 30.23 in1023.7 mb 0.00 in0.0 mm 0.00 in0.0 mm 0.00 in0.0 mm
12:10 AM 58.6°F14.8°C 56.0°F13.3°C 91% 0.2 mph ENE0.3 kmh ENE 1.8 mph2.9 kmh 30.24 in1024.0 mb 0.00 in0.0 mm 0.00 in0.0 mm 0.00 in0.0 mm
12:00 AM 58.8°F14.9°C 56.2°F13.4°C 91% 2.7 mph E4.3 kmh E 4.9 mph7.9 kmh 30.23 in1023.7 mb 0.00 in0.0 mm 0.00 in0.0 mm 0.00 in0.0 mm